Time;durP1;ratioP1;P1;durP2;ratioP2;P2;SDS_P1;SDS_P2;PMS_P1;PMS_P2;Temp;Humidity;BMP_temperature;BMP_pressure;BME280_temperature;BME280_humidity;BME280_pressure;Samples;Min_cycle;Max_cycle;Signal;HPM_P1;HPM_P2
2023/07/21 00:01:47;;;;;;;13.73;7.32;;;;;;;;;;6321963;28;20044;-77
2023/07/21 00:04:48;;;;;;;10.15;5.65;;;;;;;;;;6320189;28;20355;-76
2023/07/21 00:07:50;;;;;;;10.00;5.68;;;;;;;;;;6324623;28;20243;-74
2023/07/21 00:10:53;;;;;;;10.98;5.93;;;;;;;;;;6323773;28;20060;-74
2023/07/21 00:13:55;;;;;;;10.00;5.93;;;;;;;;;;6319911;28;20052;-73
2023/07/21 00:16:57;;;;;;;9.25;5.70;;;;;;;;;;6321068;28;20120;-74
2023/07/21 00:19:58;;;;;;;10.57;6.40;;;;;;;;;;6322480;27;20052;-76
2023/07/21 00:23:00;;;;;;;7.35;5.30;;;;;;;;;;6320500;28;20060;-73
2023/07/21 00:26:04;;;;;;;8.73;5.88;;;;;;;;;;6322424;28;20271;-72
2023/07/21 00:29:06;;;;;;;7.55;5.20;;;;;;;;;;6322892;28;20335;-73
2023/07/21 00:32:08;;;;;;;8.17;5.13;;;;;;;;;;6321405;27;20232;-73
2023/07/21 00:35:10;;;;;;;11.80;6.20;;;;;;;;;;6322407;28;20502;-73
2023/07/21 00:38:11;;;;;;;9.80;6.03;;;;;;;;;;6318510;28;20714;-75
2023/07/21 00:41:15;;;;;;;7.75;5.75;;;;;;;;;;6321455;28;20051;-72
2023/07/21 00:44:17;;;;;;;11.20;6.30;;;;;;;;;;6325159;28;20052;-74
2023/07/21 00:47:18;;;;;;;9.38;5.70;;;;;;;;;;6321423;28;20059;-72
2023/07/21 00:50:20;;;;;;;9.38;5.30;;;;;;;;;;6324650;28;20055;-72
2023/07/21 00:53:21;;;;;;;8.48;5.25;;;;;;;;;;6324506;28;20064;-73
2023/07/21 00:56:24;;;;;;;9.02;5.30;;;;;;;;;;6323672;28;20106;-73
2023/07/21 00:59:26;;;;;;;10.35;5.82;;;;;;;;;;6322475;28;20064;-74
2023/07/21 01:02:27;;;;;;;9.85;5.82;;;;;;;;;;6319565;28;20064;-74
2023/07/21 01:05:30;;;;;;;10.57;5.82;;;;;;;;;;6324341;28;20098;-73
2023/07/21 01:08:31;;;;;;;11.15;5.70;;;;;;;;;;6327255;28;20348;-73
2023/07/21 01:14:49;;;;;;;9.75;5.55;;;;;;;;;;6323415;28;20111;-74
2023/07/21 01:17:51;;;;;;;9.75;5.88;;;;;;;;;;6327966;28;20059;-75
2023/07/21 01:20:54;;;;;;;8.65;5.70;;;;;;;;;;6325969;28;20445;-74
2023/07/21 01:23:59;;;;;;;12.15;6.10;;;;;;;;;;6327049;28;20343;-74
2023/07/21 01:27:03;;;;;;;9.70;5.75;;;;;;;;;;6326925;28;20050;-75
2023/07/21 01:30:07;;;;;;;9.98;5.72;;;;;;;;;;6312371;28;20048;-74
2023/07/21 01:33:08;;;;;;;9.88;5.82;;;;;;;;;;6326620;28;20051;-73
2023/07/21 01:36:10;;;;;;;10.65;5.90;;;;;;;;;;6326496;28;20043;-73
2023/07/21 01:39:12;;;;;;;9.88;5.90;;;;;;;;;;6325530;28;20115;-74
2023/07/21 01:42:15;;;;;;;11.32;6.10;;;;;;;;;;6328999;28;20043;-73
2023/07/21 01:45:16;;;;;;;9.57;5.32;;;;;;;;;;6328933;28;20249;-74
2023/07/21 01:48:18;;;;;;;10.82;6.20;;;;;;;;;;6327825;28;20056;-72
2023/07/21 01:51:21;;;;;;;8.63;5.72;;;;;;;;;;6326939;27;20063;-73
2023/07/21 01:54:25;;;;;;;6.90;5.20;;;;;;;;;;6325470;28;20062;-72
2023/07/21 01:57:31;;;;;;;8.55;6.20;;;;;;;;;;6323140;28;20068;-72
2023/07/21 02:00:34;;;;;;;9.15;5.95;;;;;;;;;;6323376;28;20117;-73
2023/07/21 02:03:35;;;;;;;8.45;5.40;;;;;;;;;;6328132;28;20067;-72
2023/07/21 02:06:37;;;;;;;9.65;5.72;;;;;;;;;;6328686;28;20043;-72
2023/07/21 02:09:38;;;;;;;10.73;6.25;;;;;;;;;;6323382;28;20070;-74
2023/07/21 02:12:41;;;;;;;11.32;6.43;;;;;;;;;;6325064;28;20059;-71
2023/07/21 02:15:42;;;;;;;20.00;6.32;;;;;;;;;;6324922;28;20048;-72
2023/07/21 02:18:44;;;;;;;8.63;5.90;;;;;;;;;;6324492;28;20058;-74
2023/07/21 02:21:45;;;;;;;9.77;5.68;;;;;;;;;;6325184;28;20060;-73
2023/07/21 02:24:47;;;;;;;9.10;6.15;;;;;;;;;;6323501;28;20063;-73
2023/07/21 02:27:49;;;;;;;13.77;6.10;;;;;;;;;;6326172;28;20064;-73
2023/07/21 02:30:57;;;;;;;8.40;5.57;;;;;;;;;;6325680;28;20051;-73
2023/07/21 02:33:59;;;;;;;12.18;6.18;;;;;;;;;;6327148;28;20052;-72
2023/07/21 02:37:00;;;;;;;10.52;6.47;;;;;;;;;;6325876;28;20044;-73
2023/07/21 02:40:02;;;;;;;10.65;6.30;;;;;;;;;;6325708;28;20048;-73
2023/07/21 02:43:05;;;;;;;10.40;6.00;;;;;;;;;;6325059;28;20048;-74
2023/07/21 02:46:06;;;;;;;11.02;6.15;;;;;;;;;;6323736;28;20056;-74
2023/07/21 02:49:08;;;;;;;11.07;6.28;;;;;;;;;;6320400;28;20067;-76
2023/07/21 02:52:09;;;;;;;8.25;5.95;;;;;;;;;;6323314;28;20051;-73
2023/07/21 02:55:11;;;;;;;9.25;5.95;;;;;;;;;;6319219;28;20067;-74
2023/07/21 02:58:15;;;;;;;10.85;5.50;;;;;;;;;;6325598;28;20342;-74
2023/07/21 03:01:17;;;;;;;10.27;6.80;;;;;;;;;;6321455;28;20352;-75
2023/07/21 03:04:19;;;;;;;10.40;6.80;;;;;;;;;;6322762;28;20347;-74
2023/07/21 03:07:21;;;;;;;15.27;7.20;;;;;;;;;;6327950;28;20056;-74
2023/07/21 03:10:22;;;;;;;9.93;7.00;;;;;;;;;;6326483;28;20169;-74
2023/07/21 03:13:25;;;;;;;11.80;7.25;;;;;;;;;;6324371;28;20052;-74
2023/07/21 03:16:26;;;;;;;;;;;;;;;;;;6324898;28;20332;-73
2023/07/21 03:19:29;;;;;;;8.75;6.25;;;;;;;;;;6321217;28;19916;-77
2023/07/21 03:22:31;;;;;;;12.15;6.30;;;;;;;;;;6321554;28;20082;-76
2023/07/21 03:25:32;;;;;;;10.82;6.15;;;;;;;;;;6325931;28;20040;-76
2023/07/21 03:28:36;;;;;;;9.63;5.90;;;;;;;;;;6326875;28;20104;-78
2023/07/21 03:31:37;;;;;;;11.10;6.18;;;;;;;;;;6322785;28;20097;-77
2023/07/21 03:34:39;;;;;;;9.30;6.82;;;;;;;;;;6323641;28;20056;-76
2023/07/21 03:37:40;;;;;;;10.82;6.78;;;;;;;;;;6321555;28;20052;-77
2023/07/21 03:40:42;;;;;;;10.18;7.45;;;;;;;;;;6328832;28;20052;-77
2023/07/21 03:43:45;;;;;;;10.65;6.88;;;;;;;;;;6321545;28;20083;-76
2023/07/21 03:46:46;;;;;;;10.48;6.55;;;;;;;;;;6324565;28;20232;-77
2023/07/21 03:49:48;;;;;;;12.40;6.70;;;;;;;;;;6324660;28;20040;-76
2023/07/21 03:52:49;;;;;;;11.60;7.43;;;;;;;;;;6326563;28;20054;-76
2023/07/21 03:55:51;;;;;;;10.70;7.10;;;;;;;;;;6322362;28;20052;-77
2023/07/21 03:58:55;;;;;;;12.60;6.68;;;;;;;;;;6324435;28;20052;-77
2023/07/21 04:01:56;;;;;;;9.43;6.45;;;;;;;;;;6326170;28;20467;-76
2023/07/21 04:04:57;;;;;;;9.70;6.22;;;;;;;;;;6324907;28;20071;-76
2023/07/21 04:07:59;;;;;;;10.93;6.45;;;;;;;;;;6320671;28;20259;-76
2023/07/21 04:11:00;;;;;;;8.93;6.53;;;;;;;;;;6322744;28;20051;-76
2023/07/21 04:14:03;;;;;;;8.25;6.35;;;;;;;;;;6324424;28;20040;-76
2023/07/21 04:17:05;;;;;;;;;;;;;;;;;;6324201;28;20064;-76
2023/07/21 04:20:09;;;;;;;12.10;6.22;;;;;;;;;;6323521;28;19923;-77
2023/07/21 04:23:11;;;;;;;11.98;6.70;;;;;;;;;;6319826;28;20060;-77
2023/07/21 04:26:16;;;;;;;13.13;6.65;;;;;;;;;;6324155;28;20675;-76
2023/07/21 04:29:19;;;;;;;10.80;7.22;;;;;;;;;;6324839;28;20128;-77
2023/07/21 04:32:20;;;;;;;12.63;7.28;;;;;;;;;;6322252;28;20052;-76
2023/07/21 04:35:21;;;;;;;10.57;8.38;;;;;;;;;;6322066;28;20040;-76
2023/07/21 04:38:23;;;;;;;13.25;8.63;;;;;;;;;;6323098;28;20165;-76
2023/07/21 04:41:25;;;;;;;14.10;9.02;;;;;;;;;;6322246;28;20051;-76
2023/07/21 04:44:27;;;;;;;12.35;8.93;;;;;;;;;;6326024;28;20279;-76
2023/07/21 04:47:29;;;;;;;17.33;10.60;;;;;;;;;;6326390;28;20057;-76
2023/07/21 04:50:30;;;;;;;13.40;9.77;;;;;;;;;;6327170;28;20062;-76
2023/07/21 04:53:32;;;;;;;13.63;10.20;;;;;;;;;;6329575;28;20055;-76
2023/07/21 04:56:33;;;;;;;14.80;10.60;;;;;;;;;;6325261;28;20321;-76
2023/07/21 04:59:36;;;;;;;15.23;9.88;;;;;;;;;;6330478;28;20093;-76
2023/07/21 05:02:37;;;;;;;16.27;10.30;;;;;;;;;;6326910;28;20105;-77
2023/07/21 05:05:39;;;;;;;17.25;10.20;;;;;;;;;;6328665;28;20059;-77
2023/07/21 05:08:40;;;;;;;16.70;10.18;;;;;;;;;;6329894;28;20052;-77
2023/07/21 05:11:42;;;;;;;18.70;10.68;;;;;;;;;;6327362;27;20071;-76
2023/07/21 05:14:45;;;;;;;16.15;10.18;;;;;;;;;;6328862;28;20048;-76
2023/07/21 05:17:47;;;;;;;13.30;9.10;;;;;;;;;;6325626;28;20063;-76
2023/07/21 05:20:48;;;;;;;15.10;9.85;;;;;;;;;;6328584;28;20048;-76
2023/07/21 05:23:50;;;;;;;13.82;8.60;;;;;;;;;;6326834;28;20048;-77
2023/07/21 05:26:51;;;;;;;11.73;7.13;;;;;;;;;;6326622;28;20060;-77
2023/07/21 05:29:55;;;;;;;13.00;8.93;;;;;;;;;;6327402;28;20059;-77
2023/07/21 05:32:56;;;;;;;;;;;;;;;;;;6328653;28;20158;-78
2023/07/21 05:36:04;;;;;;;10.65;7.55;;;;;;;;;;6325705;28;20111;-77
2023/07/21 05:39:05;;;;;;;13.68;7.53;;;;;;;;;;6326584;28;20132;-77
2023/07/21 05:42:07;;;;;;;12.68;7.70;;;;;;;;;;6323710;28;20056;-77
2023/07/21 05:45:11;;;;;;;12.20;7.55;;;;;;;;;;6326568;27;20055;-76
2023/07/21 05:48:13;;;;;;;11.95;7.18;;;;;;;;;;6324158;28;20174;-76
2023/07/21 05:51:14;;;;;;;12.65;7.78;;;;;;;;;;6325012;28;20048;-76
2023/07/21 05:54:16;;;;;;;11.65;7.40;;;;;;;;;;6327228;28;20055;-76
2023/07/21 05:57:17;;;;;;;10.27;7.18;;;;;;;;;;6325818;28;20059;-77
2023/07/21 06:00:20;;;;;;;10.15;6.97;;;;;;;;;;6328667;27;20281;-76
2023/07/21 06:03:22;;;;;;;11.05;7.50;;;;;;;;;;6329209;28;20127;-76
2023/07/21 06:06:23;;;;;;;15.30;7.20;;;;;;;;;;6327537;28;20243;-78
2023/07/21 06:09:25;;;;;;;10.30;7.15;;;;;;;;;;6325538;28;20043;-76
2023/07/21 06:12:26;;;;;;;10.90;7.53;;;;;;;;;;6326262;28;20051;-77
2023/07/21 06:15:29;;;;;;;12.90;7.68;;;;;;;;;;6326931;28;20339;-77
2023/07/21 06:18:30;;;;;;;12.88;7.18;;;;;;;;;;6325091;28;20047;-77
2023/07/21 06:21:32;;;;;;;10.05;6.50;;;;;;;;;;6330129;28;20369;-77
2023/07/21 06:24:33;;;;;;;11.88;7.18;;;;;;;;;;6328880;28;20044;-76
2023/07/21 06:27:35;;;;;;;10.10;6.68;;;;;;;;;;6325665;28;20062;-77
2023/07/21 06:30:37;;;;;;;10.40;6.60;;;;;;;;;;6324303;28;20354;-76
2023/07/21 06:33:39;;;;;;;14.25;6.82;;;;;;;;;;6328380;28;20051;-77
2023/07/21 06:36:40;;;;;;;10.35;6.38;;;;;;;;;;6329242;28;20084;-76
2023/07/21 06:39:42;;;;;;;11.82;7.10;;;;;;;;;;6324780;28;20052;-77
2023/07/21 06:42:44;;;;;;;11.27;6.55;;;;;;;;;;6325914;28;20043;-75
2023/07/21 06:45:47;;;;;;;12.50;6.70;;;;;;;;;;6325120;28;20209;-75
2023/07/21 06:48:49;;;;;;;15.57;6.95;;;;;;;;;;6326718;28;20341;-75
2023/07/21 06:51:50;;;;;;;14.52;6.38;;;;;;;;;;6323103;28;20340;-76
2023/07/21 06:54:52;;;;;;;14.55;6.60;;;;;;;;;;6325624;28;20067;-76
2023/07/21 06:57:53;;;;;;;13.75;6.95;;;;;;;;;;6326733;28;20115;-76
2023/07/21 07:00:57;;;;;;;10.55;6.88;;;;;;;;;;6327359;28;20232;-77
2023/07/21 07:03:59;;;;;;;11.15;7.13;;;;;;;;;;6324986;28;20057;-76
2023/07/21 07:07:01;;;;;;;13.43;6.18;;;;;;;;;;6321353;28;20040;-75
2023/07/21 07:10:02;;;;;;;14.30;7.53;;;;;;;;;;6322583;28;20041;-77
2023/07/21 07:13:03;;;;;;;12.43;6.45;;;;;;;;;;6321408;27;20055;-76
2023/07/21 07:16:06;;;;;;;13.35;6.95;;;;;;;;;;6323733;28;20224;-76
2023/07/21 07:19:08;;;;;;;10.98;6.45;;;;;;;;;;6324023;28;20362;-76
2023/07/21 07:22:10;;;;;;;8.50;5.50;;;;;;;;;;6324815;28;20059;-76
2023/07/21 07:25:12;;;;;;;8.75;6.00;;;;;;;;;;6323271;28;20063;-77
2023/07/21 07:28:13;;;;;;;11.35;6.20;;;;;;;;;;6323461;28;20051;-77
2023/07/21 07:31:16;;;;;;;11.95;6.10;;;;;;;;;;6323216;28;20269;-77
2023/07/21 07:34:18;;;;;;;9.35;5.70;;;;;;;;;;6325394;28;20059;-77
2023/07/21 07:37:19;;;;;;;11.23;5.80;;;;;;;;;;6322732;28;20112;-76
2023/07/21 07:40:21;;;;;;;10.40;6.35;;;;;;;;;;6325925;28;20341;-76
2023/07/21 07:43:23;;;;;;;9.40;6.17;;;;;;;;;;6326616;28;20367;-76
2023/07/21 07:46:26;;;;;;;9.25;6.43;;;;;;;;;;6321028;28;20063;-76
2023/07/21 07:49:28;;;;;;;26.20;15.80;;;;;;;;;;6321359;28;20243;-75
2023/07/21 07:52:30;;;;;;;11.40;7.85;;;;;;;;;;6323857;28;20058;-76
2023/07/21 07:55:32;;;;;;;12.90;7.20;;;;;;;;;;6323399;28;20244;-77
2023/07/21 07:58:34;;;;;;;11.05;6.07;;;;;;;;;;6321056;28;20840;-75
2023/07/21 08:01:37;;;;;;;21.77;10.75;;;;;;;;;;6323051;27;20044;-76
2023/07/21 08:04:38;;;;;;;11.88;7.00;;;;;;;;;;6324951;28;20333;-75
2023/07/21 08:07:40;;;;;;;11.93;7.18;;;;;;;;;;6320511;28;20355;-76
2023/07/21 08:10:41;;;;;;;10.95;7.78;;;;;;;;;;6323911;28;20072;-76
2023/07/21 08:13:44;;;;;;;8.52;6.82;;;;;;;;;;6322993;28;20101;-76
2023/07/21 08:16:47;;;;;;;21.00;11.88;;;;;;;;;;6321266;28;20100;-76
2023/07/21 08:19:48;;;;;;;13.63;7.57;;;;;;;;;;6323585;28;20117;-76
2023/07/21 08:22:50;;;;;;;13.38;7.45;;;;;;;;;;6322157;28;20189;-76
2023/07/21 08:25:52;;;;;;;13.07;8.63;;;;;;;;;;6321399;28;20044;-76
2023/07/21 08:28:55;;;;;;;14.63;9.48;;;;;;;;;;6320104;28;20051;-76
2023/07/21 08:31:58;;;;;;;11.65;8.80;;;;;;;;;;6323050;28;20075;-76
2023/07/21 08:35:18;;;;;;;12.82;8.43;;;;;;;;;;6321939;28;20062;-76
2023/07/21 08:38:20;;;;;;;17.08;8.93;;;;;;;;;;6325869;28;20315;-76
2023/07/21 08:41:21;;;;;;;15.75;8.15;;;;;;;;;;6322628;27;20055;-76
2023/07/21 08:44:23;;;;;;;12.63;8.68;;;;;;;;;;6321891;28;20051;-76
2023/07/21 08:47:26;;;;;;;17.25;9.20;;;;;;;;;;6320563;28;20111;-76
2023/07/21 08:50:28;;;;;;;15.60;9.98;;;;;;;;;;6322913;28;20081;-76
2023/07/21 08:53:29;;;;;;;14.88;8.05;;;;;;;;;;6322326;28;20327;-75
2023/07/21 08:56:31;;;;;;;16.38;6.00;;;;;;;;;;6324294;28;20051;-75
2023/07/21 08:59:32;;;;;;;15.93;4.70;;;;;;;;;;6323827;28;20327;-75
2023/07/21 09:02:39;;;;;;;11.88;3.88;;;;;;;;;;6322902;28;20682;-75
2023/07/21 09:05:46;;;;;;;7.85;2.80;;;;;;;;;;6322223;28;20320;-75
2023/07/21 09:08:48;;;;;;;8.23;3.58;;;;;;;;;;6323948;28;20236;-75
2023/07/21 09:11:50;;;;;;;7.38;3.03;;;;;;;;;;6324689;28;20163;-75
2023/07/21 09:14:52;;;;;;;5.32;2.67;;;;;;;;;;6326415;28;20059;-75
2023/07/21 09:17:55;;;;;;;5.90;2.55;;;;;;;;;;6323683;28;20083;-75
2023/07/21 09:20:56;;;;;;;6.22;2.80;;;;;;;;;;6324293;28;20060;-77
2023/07/21 09:24:01;;;;;;;6.07;3.17;;;;;;;;;;6322304;28;20040;-77
2023/07/21 09:27:13;;;;;;;6.05;2.60;;;;;;;;;;6319156;28;20060;-77
2023/07/21 09:30:14;;;;;;;6.72;2.60;;;;;;;;;;6322609;28;20343;-76
2023/07/21 09:33:21;;;;;;;5.50;2.33;;;;;;;;;;6328071;28;20070;-77
2023/07/21 09:36:25;;;;;;;5.72;2.35;;;;;;;;;;6327500;28;20232;-76
2023/07/21 09:39:27;;;;;;;4.75;2.65;;;;;;;;;;6325776;28;20068;-76
2023/07/21 09:42:29;;;;;;;4.50;2.72;;;;;;;;;;6326450;28;20067;-75
2023/07/21 09:45:31;;;;;;;5.90;2.50;;;;;;;;;;6327619;28;20060;-75
2023/07/21 09:48:35;;;;;;;5.82;2.65;;;;;;;;;;6325906;28;20062;-75
2023/07/21 09:51:38;;;;;;;4.40;2.20;;;;;;;;;;6327192;28;20169;-75
2023/07/21 09:54:39;;;;;;;;;;;;;;;;;;6326962;28;20290;-75
2023/07/21 09:57:42;;;;;;;4.25;2.10;;;;;;;;;;6328237;28;19924;-77
2023/07/21 10:00:44;;;;;;;;;;;;;;;;;;6327240;28;20059;-77
2023/07/21 10:03:47;;;;;;;2.53;1.60;;;;;;;;;;6323240;28;19951;-76
2023/07/21 10:06:48;;;;;;;;;;;;;;;;;;6325870;28;20051;-78
2023/07/21 10:09:50;;;;;;;3.70;2.30;;;;;;;;;;6325545;28;20207;-77
2023/07/21 10:12:53;;;;;;;11.07;6.95;;;;;;;;;;6325763;28;20044;-76
2023/07/21 10:15:59;;;;;;;9.52;6.75;;;;;;;;;;6325045;27;20053;-77
2023/07/21 10:19:06;;;;;;;6.45;3.38;;;;;;;;;;6329119;28;20056;-76
2023/07/21 10:22:10;;;;;;;6.25;2.15;;;;;;;;;;6326005;28;20291;-78
2023/07/21 10:25:11;;;;;;;2.85;1.90;;;;;;;;;;6327611;28;20247;-77
2023/07/21 10:28:13;;;;;;;3.42;2.22;;;;;;;;;;6327017;28;20078;-78
2023/07/21 10:31:38;;;;;;;3.75;1.75;;;;;;;;;;6323920;28;20048;-77
2023/07/21 10:34:43;;;;;;;5.15;1.85;;;;;;;;;;6323077;28;20103;-76
2023/07/21 10:38:02;;;;;;;2.97;1.80;;;;;;;;;;6325282;28;20058;-77
2023/07/21 10:41:03;;;;;;;3.25;1.70;;;;;;;;;;6327695;28;20058;-76
2023/07/21 10:44:06;;;;;;;8.68;3.45;;;;;;;;;;6325238;28;20058;-76
2023/07/21 10:47:11;;;;;;;3.03;1.80;;;;;;;;;;6324727;28;20526;-76
2023/07/21 10:50:14;;;;;;;3.55;2.15;;;;;;;;;;6323517;28;20056;-75
2023/07/21 10:53:16;;;;;;;2.75;1.73;;;;;;;;;;6325582;28;20235;-76
2023/07/21 10:56:17;;;;;;;4.27;1.80;;;;;;;;;;6324960;27;20335;-76
2023/07/21 10:59:19;;;;;;;7.35;2.28;;;;;;;;;;6324473;28;20501;-75
2023/07/21 11:02:24;;;;;;;3.30;2.42;;;;;;;;;;6325033;28;20047;-76
2023/07/21 11:05:35;;;;;;;4.25;2.10;;;;;;;;;;6326804;28;20052;-77
2023/07/21 11:08:37;;;;;;;6.20;2.38;;;;;;;;;;6324343;28;20052;-76
2023/07/21 11:11:40;;;;;;;3.63;2.20;;;;;;;;;;6327363;28;20048;-76
2023/07/21 11:14:41;;;;;;;4.93;2.65;;;;;;;;;;6322834;28;20101;-76
2023/07/21 11:17:43;;;;;;;3.80;2.25;;;;;;;;;;6325641;28;20058;-76
2023/07/21 11:20:48;;;;;;;4.55;2.70;;;;;;;;;;6323972;28;20075;-77
2023/07/21 11:23:56;;;;;;;11.45;9.60;;;;;;;;;;6321570;28;20052;-76
2023/07/21 11:27:01;;;;;;;5.82;3.15;;;;;;;;;;6322677;28;20042;-76
2023/07/21 11:30:03;;;;;;;4.38;2.55;;;;;;;;;;6327639;28;20059;-76
2023/07/21 11:33:09;;;;;;;5.70;2.50;;;;;;;;;;6326652;28;20140;-76
2023/07/21 11:36:16;;;;;;;5.00;2.40;;;;;;;;;;6324525;27;20257;-77
2023/07/21 11:39:21;;;;;;;7.32;3.88;;;;;;;;;;6323225;28;20060;-76
2023/07/21 11:42:23;;;;;;;3.25;2.10;;;;;;;;;;6323874;27;20043;-76
2023/07/21 11:45:35;;;;;;;7.17;2.60;;;;;;;;;;6324811;28;20048;-76
2023/07/21 11:48:36;;;;;;;3.13;2.33;;;;;;;;;;6325640;28;20085;-77
2023/07/21 11:51:44;;;;;;;3.60;2.20;;;;;;;;;;6320868;28;20251;-77
2023/07/21 11:54:45;;;;;;;3.80;2.20;;;;;;;;;;6325137;28;22001;-75
2023/07/21 11:57:47;;;;;;;6.10;2.10;;;;;;;;;;6325407;28;20044;-76
2023/07/21 12:00:49;;;;;;;3.07;2.20;;;;;;;;;;6325308;28;20390;-79
2023/07/21 12:03:51;;;;;;;3.70;2.20;;;;;;;;;;6324017;28;20493;-77
2023/07/21 12:06:54;;;;;;;4.43;2.00;;;;;;;;;;6321825;28;20044;-76
2023/07/21 12:09:56;;;;;;;4.13;2.22;;;;;;;;;;6323461;27;20374;-77
2023/07/21 12:12:58;;;;;;;2.80;2.45;;;;;;;;;;6322559;28;20058;-76
2023/07/21 12:15:59;;;;;;;3.63;2.45;;;;;;;;;;6323321;28;20078;-78
2023/07/21 12:19:03;;;;;;;3.10;2.20;;;;;;;;;;6323342;28;20100;-76
2023/07/21 12:22:06;;;;;;;3.63;2.10;;;;;;;;;;6323002;28;20055;-77
2023/07/21 12:25:09;;;;;;;5.18;2.15;;;;;;;;;;6322581;28;20403;-77
2023/07/21 12:28:10;;;;;;;;;;;;;;;;;;6318503;28;20114;-77
2023/07/21 12:31:12;;;;;;;3.47;2.30;;;;;;;;;;6324475;28;20250;-78
2023/07/21 12:34:13;;;;;;;4.38;2.30;;;;;;;;;;6320314;28;20048;-78
2023/07/21 12:37:16;;;;;;;3.80;2.00;;;;;;;;;;6324326;28;20044;-76
2023/07/21 12:40:18;;;;;;;3.58;2.05;;;;;;;;;;6320013;28;20356;-77
2023/07/21 12:43:20;;;;;;;3.20;1.98;;;;;;;;;;6323304;28;20051;-77
2023/07/21 12:46:21;;;;;;;4.55;2.50;;;;;;;;;;6321307;28;20043;-78
2023/07/21 12:49:23;;;;;;;3.85;2.15;;;;;;;;;;6322576;27;20044;-76
2023/07/21 12:52:26;;;;;;;4.10;1.75;;;;;;;;;;6321225;28;20070;-76
2023/07/21 12:55:28;;;;;;;3.00;1.92;;;;;;;;;;6323365;28;20052;-76
2023/07/21 12:58:29;;;;;;;2.75;2.28;;;;;;;;;;6320265;28;20044;-75
2023/07/21 13:01:31;;;;;;;5.05;2.10;;;;;;;;;;6320609;28;20055;-78
2023/07/21 13:04:32;;;;;;;2.90;2.17;;;;;;;;;;6327073;28;20070;-77
2023/07/21 13:07:36;;;;;;;3.00;1.98;;;;;;;;;;6324721;28;20063;-78
2023/07/21 13:10:37;;;;;;;3.15;2.10;;;;;;;;;;6326680;28;20160;-77
2023/07/21 13:13:40;;;;;;;2.90;1.85;;;;;;;;;;6324445;28;20284;-77
2023/07/21 13:16:42;;;;;;;2.85;2.15;;;;;;;;;;6328171;28;20093;-79
2023/07/21 13:19:44;;;;;;;2.28;1.75;;;;;;;;;;6327567;28;20067;-77
2023/07/21 13:22:46;;;;;;;5.50;2.10;;;;;;;;;;6326679;28;20115;-77
2023/07/21 13:25:48;;;;;;;3.95;2.20;;;;;;;;;;6326120;28;20040;-77
2023/07/21 13:28:50;;;;;;;2.42;1.80;;;;;;;;;;6329355;28;20083;-78
2023/07/21 13:31:51;;;;;;;4.43;2.08;;;;;;;;;;6329903;28;20362;-77
2023/07/21 13:34:53;;;;;;;4.13;2.28;;;;;;;;;;6328174;28;20052;-78
2023/07/21 13:37:56;;;;;;;2.97;2.20;;;;;;;;;;6325465;27;20247;-78
2023/07/21 13:40:58;;;;;;;3.97;2.22;;;;;;;;;;6327115;28;20492;-76
2023/07/21 13:43:59;;;;;;;3.65;1.88;;;;;;;;;;6325423;28;20098;-78
2023/07/21 13:47:01;;;;;;;2.95;1.75;;;;;;;;;;6328456;28;20048;-78
2023/07/21 13:50:03;;;;;;;4.13;2.15;;;;;;;;;;6323517;28;20280;-78
2023/07/21 13:53:06;;;;;;;2.78;1.80;;;;;;;;;;6328005;27;20062;-78
2023/07/21 13:56:07;;;;;;;2.38;1.75;;;;;;;;;;6324810;28;20107;-78
2023/07/21 13:59:09;;;;;;;4.55;1.75;;;;;;;;;;6327102;28;20060;-78
2023/07/21 14:02:11;;;;;;;2.60;1.88;;;;;;;;;;6328679;28;20041;-78
2023/07/21 14:05:12;;;;;;;;;;;;;;;;;;6323004;28;20138;-78
2023/07/21 14:08:15;;;;;;;2.92;1.63;;;;;;;;;;6324779;28;19947;-78
2023/07/21 14:11:17;;;;;;;3.05;2.00;;;;;;;;;;6322850;28;20403;-78
2023/07/21 14:14:18;;;;;;;3.50;1.90;;;;;;;;;;6323087;28;20282;-78
2023/07/21 14:17:20;;;;;;;2.70;2.17;;;;;;;;;;6327683;28;20393;-78
2023/07/21 14:20:21;;;;;;;2.47;1.85;;;;;;;;;;6326097;28;20052;-78
2023/07/21 14:23:25;;;;;;;3.25;1.95;;;;;;;;;;6322854;28;20107;-78
2023/07/21 14:26:27;;;;;;;3.67;2.05;;;;;;;;;;6322816;28;20044;-78
2023/07/21 14:29:28;;;;;;;3.08;1.80;;;;;;;;;;6321035;28;20115;-78
2023/07/21 14:32:30;;;;;;;3.15;1.85;;;;;;;;;;6325507;28;20076;-78
2023/07/21 14:35:31;;;;;;;;;;;;;;;;;;6326560;28;20054;-78
2023/07/21 14:38:35;;;;;;;2.73;2.20;;;;;;;;;;6324697;28;19917;-78
2023/07/21 14:41:36;;;;;;;3.67;2.25;;;;;;;;;;6328474;28;20482;-79
2023/07/21 14:44:38;;;;;;;4.35;2.38;;;;;;;;;;6325909;28;20043;-78
2023/07/21 14:47:40;;;;;;;3.83;2.13;;;;;;;;;;6324006;28;20115;-78
2023/07/21 14:50:44;;;;;;;6.00;2.40;;;;;;;;;;6326603;28;20109;-78
2023/07/21 14:53:47;;;;;;;3.95;2.33;;;;;;;;;;6325907;28;20288;-79
2023/07/21 14:56:49;;;;;;;4.10;2.33;;;;;;;;;;6325874;28;20067;-79
2023/07/21 14:59:51;;;;;;;6.40;2.58;;;;;;;;;;6324861;28;20128;-78
2023/07/21 15:02:53;;;;;;;4.78;2.47;;;;;;;;;;6325569;28;20383;-78
2023/07/21 15:05:55;;;;;;;6.50;2.40;;;;;;;;;;6321363;28;20079;-74
2023/07/21 15:08:58;;;;;;;4.70;2.50;;;;;;;;;;6320597;28;20313;-74
2023/07/21 15:11:59;;;;;;;4.05;2.53;;;;;;;;;;6323235;28;20051;-75
2023/07/21 15:15:01;;;;;;;4.35;2.80;;;;;;;;;;6325101;28;20128;-76
2023/07/21 15:18:03;;;;;;;4.57;2.33;;;;;;;;;;6324326;28;20082;-75
2023/07/21 15:21:04;;;;;;;3.37;2.53;;;;;;;;;;6321103;28;20064;-75
2023/07/21 15:24:07;;;;;;;4.83;2.43;;;;;;;;;;6324714;28;20212;-76
2023/07/21 15:27:09;;;;;;;4.78;2.65;;;;;;;;;;6320113;28;20131;-76
2023/07/21 15:30:11;;;;;;;3.07;2.37;;;;;;;;;;6321000;28;20063;-75
2023/07/21 15:33:12;;;;;;;4.50;2.70;;;;;;;;;;6323248;28;20213;-76
2023/07/21 15:36:14;;;;;;;3.40;2.80;;;;;;;;;;6322789;28;20056;-76
2023/07/21 15:39:17;;;;;;;5.00;3.10;;;;;;;;;;6323854;28;20665;-76
2023/07/21 15:42:18;;;;;;;5.97;3.05;;;;;;;;;;6323945;28;20101;-75
2023/07/21 15:45:20;;;;;;;3.35;2.53;;;;;;;;;;6321861;28;20372;-76
2023/07/21 15:48:22;;;;;;;4.32;2.83;;;;;;;;;;6317970;28;20075;-75
2023/07/21 15:51:23;;;;;;;6.30;3.00;;;;;;;;;;6319968;28;20062;-75
2023/07/21 15:54:29;;;;;;;6.03;3.10;;;;;;;;;;6320087;28;20127;-75
2023/07/21 15:57:31;;;;;;;8.23;3.00;;;;;;;;;;6322199;28;20124;-75
2023/07/21 16:00:32;;;;;;;3.78;2.80;;;;;;;;;;6320563;28;20052;-75
2023/07/21 16:03:34;;;;;;;5.90;2.88;;;;;;;;;;6320415;28;20343;-75
2023/07/21 16:06:35;;;;;;;5.72;3.17;;;;;;;;;;6324866;28;20051;-76
2023/07/21 16:09:38;;;;;;;6.50;3.13;;;;;;;;;;6319847;28;20062;-76
2023/07/21 16:12:40;;;;;;;5.32;3.03;;;;;;;;;;6322000;28;20048;-76
2023/07/21 16:15:41;;;;;;;6.50;2.97;;;;;;;;;;6320724;28;20056;-74
2023/07/21 16:18:44;;;;;;;6.40;2.90;;;;;;;;;;6321433;28;20072;-76
2023/07/21 16:21:45;;;;;;;5.68;3.22;;;;;;;;;;6318982;28;20052;-75
2023/07/21 16:24:48;;;;;;;5.85;2.97;;;;;;;;;;6320943;28;20051;-75
2023/07/21 16:27:50;;;;;;;4.57;2.58;;;;;;;;;;6321415;28;20091;-76
2023/07/21 16:30:53;;;;;;;6.93;3.17;;;;;;;;;;6320020;28;20071;-76
2023/07/21 16:33:55;;;;;;;8.38;3.00;;;;;;;;;;6322032;28;20052;-75
2023/07/21 16:36:57;;;;;;;7.10;3.10;;;;;;;;;;6323335;28;20336;-75
2023/07/21 16:40:00;;;;;;;;;;;;;;;;;;6327028;28;20051;-75
2023/07/21 16:43:03;;;;;;;4.07;3.03;;;;;;;;;;6328142;27;19931;-76
2023/07/21 16:46:07;;;;;;;5.10;2.70;;;;;;;;;;6322461;28;20109;-74
2023/07/21 16:49:09;;;;;;;5.15;3.13;;;;;;;;;;6321830;28;20058;-74
2023/07/21 16:52:11;;;;;;;3.30;2.53;;;;;;;;;;6328606;27;20060;-76
2023/07/21 16:55:12;;;;;;;5.45;2.97;;;;;;;;;;6327503;28;20093;-76
2023/07/21 16:58:17;;;;;;;5.95;2.70;;;;;;;;;;6325636;28;20366;-77
2023/07/21 17:01:19;;;;;;;4.65;2.83;;;;;;;;;;6321264;28;20098;-76
2023/07/21 17:04:21;;;;;;;6.38;2.80;;;;;;;;;;6325256;28;20055;-76
2023/07/21 17:07:22;;;;;;;6.07;3.13;;;;;;;;;;6325915;28;20044;-76
2023/07/21 17:10:24;;;;;;;3.88;2.90;;;;;;;;;;6326272;28;20234;-75
2023/07/21 17:13:27;;;;;;;3.53;2.60;;;;;;;;;;6329621;28;20049;-75
2023/07/21 17:16:29;;;;;;;5.90;2.75;;;;;;;;;;6326063;28;20063;-76
2023/07/21 17:19:32;;;;;;;4.57;2.90;;;;;;;;;;6324984;28;20086;-75
2023/07/21 17:22:34;;;;;;;3.55;2.53;;;;;;;;;;6323930;28;20154;-75
2023/07/21 17:25:36;;;;;;;6.72;2.75;;;;;;;;;;6327814;28;20078;-75
2023/07/21 17:28:39;;;;;;;5.35;2.75;;;;;;;;;;6325392;28;20068;-76
2023/07/21 17:31:40;;;;;;;7.90;2.78;;;;;;;;;;6325363;28;20324;-74
2023/07/21 17:34:42;;;;;;;6.27;3.30;;;;;;;;;;6327973;28;20225;-76
2023/07/21 17:37:43;;;;;;;3.80;2.63;;;;;;;;;;6326111;28;21040;-75
2023/07/21 17:40:45;;;;;;;4.10;2.42;;;;;;;;;;6325688;28;20044;-75
2023/07/21 17:43:49;;;;;;;5.35;2.80;;;;;;;;;;6325662;28;20074;-76
2023/07/21 17:46:50;;;;;;;4.47;2.83;;;;;;;;;;6324089;28;20114;-75
2023/07/21 17:49:52;;;;;;;4.40;2.97;;;;;;;;;;6325021;28;20216;-76
2023/07/21 17:52:54;;;;;;;7.57;3.28;;;;;;;;;;6324761;28;20240;-75
2023/07/21 17:55:56;;;;;;;5.22;2.83;;;;;;;;;;6326129;28;20070;-76
2023/07/21 17:58:59;;;;;;;3.50;2.63;;;;;;;;;;6325297;28;20352;-76
2023/07/21 18:02:00;;;;;;;5.72;3.10;;;;;;;;;;6322636;28;20043;-75
2023/07/21 18:05:02;;;;;;;4.40;3.10;;;;;;;;;;6324721;28;20074;-76
2023/07/21 18:08:04;;;;;;;5.80;3.25;;;;;;;;;;6322916;28;20064;-75
2023/07/21 18:11:07;;;;;;;5.18;3.03;;;;;;;;;;6322550;28;20051;-76
2023/07/21 18:14:08;;;;;;;;;;;;;;;;;;6328859;28;20074;-75